Rws 24 — PBOC — position and weather

sailwx.info

Track history (hours):
 
Tides and Currents Weather Stations Pressure Air Temp Water Temp Dewpoint Dewpoint Depression Visibility Wind Speed Wind Dir Waves Ship Positions

Rws 24

Last reported at 2017-Dec-08 04:09 UTC. Time now 2017-Dec-12 04:34 UTC.
Position N 36°57' E 000°41'.

Length 36 m; draft 2.3 m.

Type: Other ship. MMSI: 244913000.

Date/timePositionNaut miles runAvg speedWind from/ knotsBaromVisibWave heightAir tempDewpointWater temp
2017-Dec-08 04:09N 36°57' E 000°41'1 7.6
2017-Dec-08 04:00N 36°57' E 000°43'  
2017-Dec-04 04:49N 36°31' E 014°03'3 6.3
2017-Dec-04 04:25N 36°30' E 014°06'3 6.8
2017-Dec-04 04:00N 36°29' E 014°09'4 7.1
2017-Dec-04 03:28N 36°28' E 014°14'5 6.9
2017-Dec-04 02:47N 36°26' E 014°19'3 6.8
2017-Dec-04 02:24N 36°25' E 014°22'3 6.9
2017-Dec-04 02:00N 36°24' E 014°26'4 6.9
2017-Dec-04 01:30N 36°23' E 014°30'3 6.8
2017-Dec-04 01:00N 36°22' E 014°34'  
2017-Nov-30 22:17N 34°25' E 025°00'8 6.8
2017-Nov-30 21:08N 34°25' E 025°09'13 6.7
2017-Nov-30 19:10N 34°25' E 025°25'2 6.7
2017-Nov-30 18:51N 34°25' E 025°28'3 6.8
2017-Nov-30 18:29N 34°25' E 025°31'  
2017-Nov-28 11:39N 34°37' E 033°03'1 7.2
2017-Nov-28 11:29N 34°38' E 033°03'2 3.4
2017-Nov-28 11:00N 34°39' E 033°01'0 0.0
2017-Nov-28 10:30N 34°39' E 033°01'0 0.0
2017-Nov-28 10:00N 34°39' E 033°01'0 0.0
2017-Nov-28 09:30N 34°39' E 033°01'0 0.0
2017-Nov-28 09:00N 34°39' E 033°01'0 0.0
2017-Nov-28 08:30N 34°39' E 033°01'0 0.0
2017-Nov-28 08:00N 34°39' E 033°01'0 0.0
2017-Nov-28 07:30N 34°39' E 033°01'0 0.0
2017-Nov-28 07:00N 34°39' E 033°01'0 0.0
2017-Nov-28 06:30N 34°39' E 033°01'0 0.0
2017-Nov-28 06:00N 34°39' E 033°01'0 0.0
2017-Nov-28 05:30N 34°39' E 033°01'0 0.0
2017-Nov-28 04:30N 34°39' E 033°01'  
Track history (hours):
 
Tides and Currents Weather Stations Pressure Air Temp Water Temp Dewpoint Dewpoint Depression Visibility Wind Speed Wind Dir Waves Ship Positions

Rws 24

Last reported at 2017-Dec-08 04:09 UTC. Time now 2017-Dec-12 04:34 UTC.
Position N 36°57' E 000°41'.

Length 36 m; draft 2.3 m.

Type: Other ship. MMSI: 244913000.

Date/timePositionNaut miles runAvg speedWind from/ knotsBaromVisibWave heightAir tempDewpointWater temp
2017-Dec-08 04:09N 36°57' E 000°41'1 7.6
2017-Dec-08 04:00N 36°57' E 000°43'  
2017-Dec-04 04:49N 36°31' E 014°03'3 6.3
2017-Dec-04 04:25N 36°30' E 014°06'3 6.8
2017-Dec-04 04:00N 36°29' E 014°09'4 7.1
2017-Dec-04 03:28N 36°28' E 014°14'5 6.9
2017-Dec-04 02:47N 36°26' E 014°19'3 6.8
2017-Dec-04 02:24N 36°25' E 014°22'3 6.9
2017-Dec-04 02:00N 36°24' E 014°26'4 6.9
2017-Dec-04 01:30N 36°23' E 014°30'3 6.8
2017-Dec-04 01:00N 36°22' E 014°34'  
2017-Nov-30 22:17N 34°25' E 025°00'8 6.8
2017-Nov-30 21:08N 34°25' E 025°09'13 6.7
2017-Nov-30 19:10N 34°25' E 025°25'2 6.7
2017-Nov-30 18:51N 34°25' E 025°28'3 6.8
2017-Nov-30 18:29N 34°25' E 025°31'  
2017-Nov-28 11:39N 34°37' E 033°03'1 7.2
2017-Nov-28 11:29N 34°38' E 033°03'2 3.4
2017-Nov-28 11:00N 34°39' E 033°01'0 0.0
2017-Nov-28 10:30N 34°39' E 033°01'0 0.0
2017-Nov-28 10:00N 34°39' E 033°01'0 0.0
2017-Nov-28 09:30N 34°39' E 033°01'0 0.0
2017-Nov-28 09:00N 34°39' E 033°01'0 0.0
2017-Nov-28 08:30N 34°39' E 033°01'0 0.0
2017-Nov-28 08:00N 34°39' E 033°01'0 0.0
2017-Nov-28 07:30N 34°39' E 033°01'0 0.0
2017-Nov-28 07:00N 34°39' E 033°01'0 0.0
2017-Nov-28 06:30N 34°39' E 033°01'0 0.0
2017-Nov-28 06:00N 34°39' E 033°01'0 0.0
2017-Nov-28 05:30N 34°39' E 033°01'0 0.0
2017-Nov-28 04:30N 34°39' E 033°01'  

Dump ship's entire track history